createdAt,value
2019-01-27T00:00:38.919Z,97335.42
2019-01-27T00:03:09.672Z,97335.81
2019-01-27T00:05:40.085Z,97334.10
2019-01-27T00:08:13.729Z,97332.06
2019-01-27T00:10:42.699Z,97333.18
2019-01-27T00:13:12.950Z,97331.05
2019-01-27T00:15:43.219Z,97329.80
2019-01-27T00:18:13.984Z,97322.16
2019-01-27T00:20:44.279Z,97311.34
2019-01-27T00:23:15.040Z,97305.95
2019-01-27T00:25:45.355Z,97300.49
2019-01-27T00:28:15.526Z,97299.17
2019-01-27T00:30:46.017Z,97287.36
2019-01-27T00:33:16.386Z,97283.80
2019-01-27T00:35:46.644Z,97281.38
2019-01-27T00:38:16.921Z,97272.94
2019-01-27T00:40:47.191Z,97268.45
2019-01-27T00:43:17.462Z,97262.02
2019-01-27T00:45:48.082Z,97258.41
2019-01-27T00:48:18.323Z,97259.81
2019-01-27T00:50:49.321Z,97246.93
2019-01-27T00:53:19.597Z,97243.63
2019-01-27T00:55:49.860Z,97238.42
2019-01-27T00:58:20.130Z,97243.86
2019-01-27T01:00:50.727Z,97240.50
2019-01-27T01:03:21.645Z,97225.38
2019-01-27T01:05:51.929Z,97226.26
2019-01-27T01:08:22.199Z,97217.14
2019-01-27T01:10:52.953Z,97205.46
2019-01-27T01:13:23.252Z,97200.81
2019-01-27T01:15:53.872Z,97202.03
2019-01-27T01:18:24.103Z,97197.08
2019-01-27T01:20:54.319Z,97198.75
2019-01-27T01:23:25.927Z,97189.54
2019-01-27T01:25:56.110Z,97189.58
2019-01-27T01:28:26.762Z,97179.25
2019-01-27T01:30:57.038Z,97164.66
2019-01-27T01:33:27.323Z,97169.15
2019-01-27T01:35:57.612Z,97170.53
2019-01-27T01:38:27.913Z,97169.28
2019-01-27T01:40:58.467Z,97164.13
2019-01-27T01:43:28.784Z,97163.36
2019-01-27T01:45:58.978Z,97157.27
2019-01-27T01:48:29.205Z,97161.00
2019-01-27T01:50:59.880Z,97165.89
2019-01-27T01:53:30.076Z,97156.31
2019-01-27T01:56:00.608Z,97151.23
2019-01-27T01:58:31.270Z,97147.11
2019-01-27T02:01:01.626Z,97146.95
2019-01-27T02:03:31.906Z,97135.68
2019-01-27T02:06:02.220Z,97135.08
2019-01-27T02:08:33.550Z,97130.66
2019-01-27T02:11:04.021Z,97130.13
2019-01-27T02:13:35.679Z,97117.77
2019-01-27T02:16:10.419Z,97108.69
2019-01-27T02:18:41.772Z,97103.86
2019-01-27T02:21:12.485Z,97079.58
2019-01-27T02:23:43.114Z,97081.87
2019-01-27T02:26:13.677Z,97071.42
2019-01-27T02:28:44.469Z,97060.13
2019-01-27T02:31:14.641Z,97051.71
2019-01-27T02:33:44.903Z,97043.80
2019-01-27T02:36:15.218Z,97039.89
2019-01-27T02:38:45.501Z,97035.34
2019-01-27T02:41:16.019Z,97028.36
2019-01-27T02:43:46.212Z,97025.86
2019-01-27T02:46:16.485Z,97011.94
2019-01-27T02:48:46.750Z,97007.88
2019-01-27T02:51:17.372Z,97003.91
2019-01-27T02:53:47.878Z,97003.11
2019-01-27T02:56:18.089Z,96989.64
2019-01-27T02:58:48.583Z,96989.67
2019-01-27T03:01:18.849Z,96976.68
2019-01-27T03:03:49.356Z,96971.02
2019-01-27T03:06:44.929Z,96969.45
2019-01-27T03:09:26.253Z,96968.25
2019-01-27T03:11:57.184Z,96953.38
2019-01-27T03:14:27.409Z,96945.77
2019-01-27T03:19:36.762Z,96942.84
2019-01-27T03:22:07.141Z,96944.13
2019-01-27T03:24:37.362Z,96928.94
2019-01-27T03:27:07.930Z,96930.03
2019-01-27T03:29:38.215Z,96922.33
2019-01-27T03:32:08.475Z,96925.95
2019-01-27T03:34:39.031Z,96923.08
2019-01-27T03:37:09.366Z,96916.77
2019-01-27T03:39:39.610Z,96910.33
2019-01-27T03:42:09.946Z,96905.20
2019-01-27T03:44:40.178Z,96907.25
2019-01-27T03:47:10.480Z,96909.80
2019-01-27T03:49:40.846Z,96905.02
2019-01-27T03:52:12.249Z,96901.66
2019-01-27T03:54:43.058Z,96892.55
2019-01-27T03:57:13.323Z,96874.92
2019-01-27T03:59:43.540Z,96870.98
2019-01-27T04:02:13.769Z,96859.48
2019-01-27T04:04:44.331Z,96854.67
2019-01-27T04:07:15.174Z,96844.47
2019-01-27T04:09:45.388Z,96829.89
2019-01-27T04:12:15.645Z,96824.87
2019-01-27T04:14:45.859Z,96818.11
2019-01-27T04:17:16.099Z,96817.83
2019-01-27T04:19:46.397Z,96813.23
2019-01-27T04:22:17.020Z,96795.62
2019-01-27T04:24:47.574Z,96787.83
2019-01-27T04:27:17.804Z,96785.75
2019-01-27T04:29:48.146Z,96779.36
2019-01-27T04:32:18.361Z,96774.15
2019-01-27T04:34:48.714Z,96775.02
2019-01-27T04:37:19.038Z,96769.16
2019-01-27T04:39:49.728Z,96770.08
2019-01-27T04:42:21.398Z,96761.13
2019-01-27T04:44:52.303Z,96756.13
2019-01-27T04:47:22.732Z,96750.93
2019-01-27T04:49:53.266Z,96747.26
2019-01-27T04:52:23.646Z,96738.19
2019-01-27T04:54:53.844Z,96735.08
2019-01-27T04:57:24.130Z,96734.67
2019-01-27T04:59:54.381Z,96741.64
2019-01-27T05:02:26.494Z,96733.89
2019-01-27T05:04:56.878Z,96736.31
2019-01-27T05:07:27.128Z,96719.16
2019-01-27T05:09:57.355Z,96720.13
2019-01-27T05:12:27.564Z,96725.44
2019-01-27T05:14:57.833Z,96715.23
2019-01-27T05:17:28.113Z,96718.67
2019-01-27T05:19:58.296Z,96712.72
2019-01-27T05:22:28.555Z,96708.36
2019-01-27T05:24:58.799Z,96701.34
2019-01-27T05:27:29.030Z,96699.38
2019-01-27T05:29:59.353Z,96690.95
2019-01-27T05:32:29.578Z,96681.31
2019-01-27T05:34:59.859Z,96677.13
2019-01-27T05:37:30.130Z,96672.91
2019-01-27T05:40:00.457Z,96674.14
2019-01-27T05:42:31.001Z,96672.38
2019-01-27T05:45:01.634Z,96667.80
2019-01-27T05:47:31.933Z,96669.12
2019-01-27T05:50:02.546Z,96660.84
2019-01-27T05:52:32.808Z,96655.17
2019-01-27T05:55:04.041Z,96654.34
2019-01-27T05:57:34.258Z,96644.16
2019-01-27T06:00:05.856Z,96639.48
2019-01-27T06:02:36.468Z,96639.84
2019-01-27T06:05:08.578Z,96633.78
2019-01-27T06:07:39.951Z,96624.98
2019-01-27T06:10:11.363Z,96625.31
2019-01-27T06:12:41.622Z,96616.20
2019-01-27T06:15:13.334Z,96603.89
2019-01-27T06:17:43.844Z,96611.18
2019-01-27T06:20:14.520Z,96612.04
2019-01-27T06:22:45.104Z,96599.50
2019-01-27T06:25:16.341Z,96617.06
2019-01-27T06:27:46.555Z,96610.38
2019-01-27T06:30:26.343Z,96606.61
2019-01-27T06:33:18.649Z,96610.00
2019-01-27T06:35:48.942Z,96603.23
2019-01-27T06:38:19.564Z,96610.12
2019-01-27T06:40:50.126Z,96599.80
2019-01-27T06:43:20.361Z,96606.14
2019-01-27T06:45:51.926Z,96601.83
2019-01-27T06:48:22.604Z,96583.31
2019-01-27T06:50:53.598Z,96577.80
2019-01-27T06:53:23.936Z,96573.38
2019-01-27T06:55:54.446Z,96575.62
2019-01-27T06:58:30.434Z,96566.14
2019-01-27T07:01:18.309Z,96564.53
2019-01-27T07:04:10.439Z,96571.53
2019-01-27T07:06:59.844Z,96575.93
2019-01-27T07:09:48.013Z,96574.19
2019-01-27T07:12:46.277Z,96571.17
2019-01-27T07:15:38.758Z,96564.41
2019-01-27T07:18:46.444Z,96555.77
2019-01-27T07:21:35.468Z,96548.19
2019-01-27T07:24:27.659Z,96547.32
2019-01-27T07:27:16.843Z,96550.67
2019-01-27T07:29:57.369Z,96538.33
2019-01-27T07:32:52.880Z,96537.19
2019-01-27T07:35:42.298Z,96534.11
2019-01-27T07:38:34.463Z,96528.66
2019-01-27T07:41:15.273Z,96529.48
2019-01-27T07:43:58.478Z,96521.67
2019-01-27T07:46:48.950Z,96520.45
2019-01-27T07:49:37.225Z,96512.09
2019-01-27T07:52:26.595Z,96517.86
2019-01-27T07:55:34.141Z,96511.27
2019-01-27T07:58:35.518Z,96513.52
2019-01-27T08:01:25.356Z,96504.91
2019-01-27T08:04:13.520Z,96502.31
2019-01-27T08:07:01.288Z,96496.46
2019-01-27T08:09:51.421Z,96496.71
2019-01-27T08:12:34.746Z,96495.91
2019-01-27T08:15:17.201Z,96489.80
2019-01-27T08:18:10.126Z,96505.89
2019-01-27T08:21:06.085Z,96495.96
2019-01-27T08:24:02.844Z,96505.39
2019-01-27T08:26:43.669Z,96501.45
2019-01-27T08:29:32.105Z,96502.86
2019-01-27T08:32:37.021Z,96503.77
2019-01-27T08:35:17.315Z,96490.87
2019-01-27T08:38:08.990Z,96491.18
2019-01-27T08:40:50.856Z,96486.18
2019-01-27T08:43:38.949Z,96485.87
2019-01-27T08:46:22.578Z,96483.91
2019-01-27T08:48:52.910Z,96481.64
2019-01-27T08:51:23.258Z,96477.88
2019-01-27T08:53:53.955Z,96476.34
2019-01-27T08:56:25.150Z,96467.84
2019-01-27T08:58:55.729Z,96459.55
2019-01-27T09:01:45.326Z,96456.29
2019-01-27T09:04:23.513Z,96450.25
2019-01-27T09:07:10.179Z,96444.89
2019-01-27T09:10:03.277Z,96448.52
2019-01-27T09:12:51.339Z,96439.67
2019-01-27T09:15:50.923Z,96450.40
2019-01-27T09:18:45.219Z,96451.88
2019-01-27T09:21:33.137Z,96442.61
2019-01-27T09:24:33.042Z,96437.34
2019-01-27T09:27:13.766Z,96424.73
2019-01-27T09:29:53.793Z,96427.20
2019-01-27T09:32:43.893Z,96429.09
2019-01-27T09:35:23.400Z,96428.44
2019-01-27T09:38:13.010Z,96427.95
2019-01-27T09:41:01.451Z,96427.95
2019-01-27T09:43:50.886Z,96425.37
2019-01-27T09:46:32.710Z,96425.37
2019-01-27T09:49:32.654Z,96435.19
2019-01-27T09:52:22.242Z,96423.66
2019-01-27T09:55:09.848Z,96428.52
2019-01-27T09:58:05.324Z,96432.85
2019-01-27T10:00:41.738Z,96423.75
2019-01-27T10:03:22.252Z,96413.03
2019-01-27T10:06:15.666Z,96414.66
2019-01-27T10:09:05.386Z,96421.14
2019-01-27T10:11:54.948Z,96416.69
2019-01-27T10:14:47.575Z,96403.55
2019-01-27T10:17:41.100Z,96405.06
2019-01-27T10:20:38.514Z,96419.72
2019-01-27T10:23:22.643Z,96415.05
2019-01-27T10:26:18.930Z,96419.72
2019-01-27T10:28:59.956Z,96431.02
2019-01-27T10:31:49.883Z,96429.17
2019-01-27T10:34:39.146Z,96418.30
2019-01-27T10:37:40.018Z,96404.37
2019-01-27T10:40:29.849Z,96409.07
2019-01-27T10:43:15.883Z,96393.09
2019-01-27T10:46:04.958Z,96396.39
2019-01-27T10:48:45.873Z,96391.67
2019-01-27T10:51:50.792Z,96402.03
2019-01-27T10:54:59.870Z,96395.67
2019-01-27T10:57:39.839Z,96398.28
2019-01-27T11:00:36.576Z,96409.24
2019-01-27T11:03:42.188Z,96399.55
2019-01-27T11:06:31.636Z,96398.28
2019-01-27T11:09:20.531Z,96415.33
2019-01-27T11:12:06.946Z,96378.34
2019-01-27T11:15:02.228Z,96376.34
2019-01-27T11:17:43.131Z,96370.66
2019-01-27T11:20:40.148Z,96363.02
2019-01-27T11:23:31.393Z,96356.86
2019-01-27T11:26:17.762Z,96355.39
2019-01-27T11:29:23.015Z,96358.69
2019-01-27T11:32:13.767Z,96359.45
2019-01-27T11:35:02.696Z,96345.57
2019-01-27T11:37:51.636Z,96343.67
2019-01-27T11:40:41.299Z,96343.06
2019-01-27T11:43:31.165Z,96330.80
2019-01-27T11:46:13.713Z,96340.54
2019-01-27T11:48:55.456Z,96339.26
2019-01-27T11:51:39.039Z,96338.31
2019-01-27T11:54:11.413Z,96339.41
2019-01-27T11:56:44.510Z,96323.92
2019-01-27T11:59:17.655Z,96317.39
2019-01-27T12:01:51.094Z,96324.08
2019-01-27T12:04:25.453Z,96303.81
2019-01-27T12:06:57.489Z,96303.81
2019-01-27T12:09:29.746Z,96298.86
2019-01-27T12:12:01.702Z,96272.89
2019-01-27T12:14:33.662Z,96272.89
2019-01-27T12:17:04.557Z,96267.20
2019-01-27T12:19:40.301Z,96271.11
2019-01-27T12:22:12.212Z,96261.08
2019-01-27T12:24:43.911Z,96250.84
2019-01-27T12:27:15.493Z,96244.76
2019-01-27T12:29:48.331Z,96236.47
2019-01-27T12:32:22.145Z,96228.77
2019-01-27T12:34:54.605Z,96237.25
2019-01-27T12:37:27.361Z,96233.83
2019-01-27T12:40:00.190Z,96223.61
2019-01-27T12:42:33.189Z,96234.17
2019-01-27T12:45:06.460Z,96221.90
2019-01-27T12:47:39.244Z,96206.97
2019-01-27T12:50:15.966Z,96204.65
2019-01-27T12:52:51.764Z,96197.06
2019-01-27T12:55:24.055Z,96195.41
2019-01-27T12:57:57.211Z,96190.19
2019-01-27T13:00:59.342Z,96180.42
2019-01-27T13:03:33.336Z,96179.30
2019-01-27T13:06:06.888Z,96171.78
2019-01-27T13:08:40.634Z,96168.28
2019-01-27T13:11:13.139Z,96168.36
2019-01-27T13:13:45.626Z,96169.88
2019-01-27T13:16:18.601Z,96157.42
2019-01-27T13:18:50.931Z,96157.86
2019-01-27T13:21:22.878Z,96149.38
2019-01-27T13:23:56.215Z,96147.87
2019-01-27T13:26:30.160Z,96162.16
2019-01-27T13:29:02.913Z,96148.16
2019-01-27T13:31:37.248Z,96148.97
2019-01-27T13:34:09.568Z,96148.64
2019-01-27T13:36:42.091Z,96153.59
2019-01-27T13:39:15.372Z,96147.84
2019-01-27T13:41:48.963Z,96140.30
2019-01-27T13:44:21.595Z,96138.98
2019-01-27T13:46:54.622Z,96153.95
2019-01-27T13:49:26.456Z,96145.30
2019-01-27T13:51:57.888Z,96155.11
2019-01-27T13:54:30.284Z,96146.95
2019-01-27T13:57:03.674Z,96139.88
2019-01-27T13:59:35.432Z,96150.25
2019-01-27T14:02:07.858Z,96154.70
2019-01-27T14:04:40.004Z,96143.30
2019-01-27T14:07:10.769Z,96132.23
2019-01-27T14:09:42.415Z,96128.49
2019-01-27T14:12:14.707Z,96127.49
2019-01-27T14:14:47.374Z,96109.77
2019-01-27T14:17:19.624Z,96117.59
2019-01-27T14:19:51.213Z,96108.03
2019-01-27T14:22:22.947Z,96107.30
2019-01-27T14:24:54.025Z,96096.13
2019-01-27T14:27:27.568Z,96096.87
2019-01-27T14:30:00.100Z,96089.97
2019-01-27T14:32:32.477Z,96089.50
2019-01-27T14:35:04.863Z,96091.19
2019-01-27T14:37:36.453Z,96093.20
2019-01-27T14:40:10.236Z,96103.73
2019-01-27T14:42:41.388Z,96109.91
2019-01-27T14:45:16.343Z,96103.10
2019-01-27T14:47:47.924Z,96107.73
2019-01-27T14:50:22.083Z,96096.23
2019-01-27T14:52:54.845Z,96092.47
2019-01-27T14:55:27.330Z,96091.30
2019-01-27T14:58:01.048Z,96089.20
2019-01-27T15:00:36.663Z,96101.42
2019-01-27T15:03:12.680Z,96092.72
2019-01-27T15:05:44.805Z,96102.69
2019-01-27T15:08:19.246Z,96088.18
2019-01-27T15:10:51.349Z,96089.97
2019-01-27T15:13:23.839Z,96086.03
2019-01-27T15:15:56.599Z,96085.73
2019-01-27T15:18:30.564Z,96098.61
2019-01-27T15:21:09.666Z,96096.61
2019-01-27T15:23:42.842Z,96105.63
2019-01-27T15:26:16.503Z,96091.49
2019-01-27T15:28:49.922Z,96088.16
2019-01-27T15:31:23.216Z,96091.56
2019-01-27T15:33:57.046Z,96091.56
2019-01-27T15:36:30.666Z,96083.77
2019-01-27T15:39:06.076Z,96085.63
2019-01-27T15:41:38.334Z,96090.34
2019-01-27T15:44:12.094Z,96099.05
2019-01-27T15:46:45.390Z,96086.87
2019-01-27T15:49:18.804Z,96109.36
2019-01-27T15:51:51.564Z,96117.91
2019-01-27T15:54:24.049Z,96135.44
2019-01-27T15:56:57.424Z,96128.14
2019-01-27T15:59:30.905Z,96155.47
2019-01-27T16:02:04.622Z,96162.47
2019-01-27T16:04:36.354Z,96162.75
2019-01-27T16:07:09.726Z,96184.03
2019-01-27T16:09:43.647Z,96181.06
2019-01-27T16:12:17.290Z,96182.13
2019-01-27T16:14:49.847Z,96179.90
2019-01-27T16:17:23.726Z,96180.17
2019-01-27T16:19:56.871Z,96171.16
2019-01-27T16:22:30.178Z,96177.21
2019-01-27T16:25:05.399Z,96178.52
2019-01-27T16:27:40.973Z,96176.83
2019-01-27T16:30:44.840Z,96173.04
2019-01-27T16:33:35.688Z,96173.63
2019-01-27T16:36:09.252Z,96179.58
2019-01-27T16:38:42.424Z,96178.88
2019-01-27T16:41:16.188Z,96183.92
2019-01-27T16:43:50.600Z,96198.08
2019-01-27T16:46:25.925Z,96203.38
2019-01-27T16:49:00.300Z,96197.48
2019-01-27T16:51:34.356Z,96203.42
2019-01-27T16:54:07.542Z,96211.70
2019-01-27T16:56:41.144Z,96210.92
2019-01-27T16:59:14.845Z,96205.19
2019-01-27T17:01:49.059Z,96209.20
2019-01-27T17:04:22.924Z,96204.19
2019-01-27T17:06:55.633Z,96211.48
2019-01-27T17:09:30.289Z,96213.02
2019-01-27T17:12:04.311Z,96216.48
2019-01-27T17:14:37.872Z,96219.52
2019-01-27T17:17:10.510Z,96217.16
2019-01-27T17:19:44.728Z,96214.70
2019-01-27T17:22:17.519Z,96227.78
2019-01-27T17:24:50.832Z,96226.53
2019-01-27T17:27:24.380Z,96228.19
2019-01-27T17:29:57.652Z,96221.92
2019-01-27T17:32:30.680Z,96231.13
2019-01-27T17:35:03.098Z,96228.92
2019-01-27T17:37:37.103Z,96231.38
2019-01-27T17:40:11.005Z,96236.48
2019-01-27T17:42:45.387Z,96235.99
2019-01-27T17:45:19.876Z,96247.23
2019-01-27T17:47:53.496Z,96247.11
2019-01-27T17:50:26.702Z,96259.28
2019-01-27T17:52:59.377Z,96259.11
2019-01-27T17:55:41.742Z,96273.20
2019-01-27T17:58:40.663Z,96270.69
2019-01-27T18:01:34.162Z,96265.38
2019-01-27T18:04:42.344Z,96277.12
2019-01-27T18:07:41.776Z,96288.80
2019-01-27T18:10:31.335Z,96285.14
2019-01-27T18:13:35.884Z,96296.56
2019-01-27T18:16:09.629Z,96313.42
2019-01-27T18:18:43.852Z,96315.98
2019-01-27T18:21:19.017Z,96306.64
2019-01-27T18:23:53.956Z,96311.67
2019-01-27T18:26:26.776Z,96310.74
2019-01-27T18:29:02.465Z,96329.08
2019-01-27T18:31:37.067Z,96325.79
2019-01-27T18:34:11.652Z,96334.73
2019-01-27T18:36:47.440Z,96343.65
2019-01-27T18:39:22.029Z,96342.73
2019-01-27T18:41:56.910Z,96348.16
2019-01-27T18:44:34.299Z,96365.36
2019-01-27T18:47:11.908Z,96368.20
2019-01-27T18:49:46.938Z,96373.58
2019-01-27T18:52:31.061Z,96376.52
2019-01-27T18:55:14.903Z,96377.64
2019-01-27T18:58:09.344Z,96385.69
2019-01-27T19:01:13.609Z,96388.64
2019-01-27T19:04:06.242Z,96397.08
2019-01-27T19:06:58.363Z,96403.50
2019-01-27T19:10:07.817Z,96404.75
2019-01-27T19:12:57.012Z,96420.11
2019-01-27T19:16:02.653Z,96424.58
2019-01-27T19:18:54.513Z,96422.89
2019-01-27T19:22:01.226Z,96440.89
2019-01-27T19:25:01.858Z,96449.33
2019-01-27T19:27:55.637Z,96460.55
2019-01-27T19:30:42.863Z,96467.09
2019-01-27T19:33:46.469Z,96468.91
2019-01-27T19:36:32.902Z,96473.22
2019-01-27T19:39:33.352Z,96485.13
2019-01-27T19:42:19.298Z,96502.92
2019-01-27T19:45:14.322Z,96498.73
2019-01-27T19:48:11.922Z,96505.20
2019-01-27T19:51:05.150Z,96530.23
2019-01-27T19:53:52.038Z,96536.91
2019-01-27T19:56:58.319Z,96545.61
2019-01-27T19:59:51.174Z,96548.86
2019-01-27T20:02:41.508Z,96562.00
2019-01-27T20:05:30.744Z,96568.30
2019-01-27T20:08:19.569Z,96585.67
2019-01-27T20:11:10.678Z,96581.27
2019-01-27T20:14:11.091Z,96589.94
2019-01-27T20:16:57.852Z,96601.27
2019-01-27T20:19:55.298Z,96616.47
2019-01-27T20:22:58.884Z,96618.82
2019-01-27T20:25:52.347Z,96634.92
2019-01-27T20:28:55.385Z,96640.13
2019-01-27T20:31:47.077Z,96649.88
2019-01-27T20:34:48.013Z,96665.66
2019-01-27T20:37:41.985Z,96668.45
2019-01-27T20:40:31.158Z,96691.90
2019-01-27T20:43:27.692Z,96695.89
2019-01-27T20:46:16.658Z,96707.81
2019-01-27T20:49:15.662Z,96716.63
2019-01-27T20:52:11.850Z,96722.87
2019-01-27T20:55:10.076Z,96743.67
2019-01-27T20:58:05.818Z,96749.11
2019-01-27T21:01:13.991Z,96756.92
2019-01-27T21:04:00.709Z,96766.53
2019-01-27T21:06:56.961Z,96773.38
2019-01-27T21:09:53.871Z,96772.27
2019-01-27T21:12:58.035Z,96793.98
2019-01-27T21:15:47.900Z,96796.05
2019-01-27T21:18:37.874Z,96795.91
2019-01-27T21:21:16.129Z,96799.58
2019-01-27T21:23:51.758Z,96809.98
2019-01-27T21:26:28.183Z,96813.67
2019-01-27T21:29:04.989Z,96817.64
2019-01-27T21:31:39.424Z,96815.97
2019-01-27T21:34:11.413Z,96818.46
2019-01-27T21:36:44.581Z,96820.89
2019-01-27T21:39:18.853Z,96819.69
2019-01-27T21:41:50.921Z,96831.70
2019-01-27T21:44:22.782Z,96834.83
2019-01-27T21:46:56.426Z,96841.91
2019-01-27T21:49:28.909Z,96839.38
2019-01-27T21:52:00.943Z,96854.02
2019-01-27T21:54:32.793Z,96851.88
2019-01-27T21:57:05.166Z,96856.66
2019-01-27T21:59:36.411Z,96862.86
2019-01-27T22:02:07.318Z,96854.84
2019-01-27T22:04:38.236Z,96864.18
2019-01-27T22:07:09.985Z,96861.80
2019-01-27T22:09:42.535Z,96859.14
2019-01-27T22:12:13.004Z,96870.92
2019-01-27T22:14:43.316Z,96855.09
2019-01-27T22:17:15.002Z,96857.11
2019-01-27T22:19:45.919Z,96856.17
2019-01-27T22:22:16.785Z,96865.64
2019-01-27T22:24:47.142Z,96868.78
2019-01-27T22:27:17.684Z,96869.03
2019-01-27T22:29:47.945Z,96874.31
2019-01-27T22:32:18.218Z,96874.70
2019-01-27T22:34:48.499Z,96893.66
2019-01-27T22:37:19.915Z,96886.33
2019-01-27T22:39:50.522Z,96892.59
2019-01-27T22:42:20.837Z,96895.22
2019-01-27T22:44:51.423Z,96893.75
2019-01-27T22:47:22.019Z,96895.51
2019-01-27T22:49:52.332Z,96898.28
2019-01-27T22:52:22.702Z,96900.77
2019-01-27T22:54:53.254Z,96898.14
2019-01-27T22:57:23.497Z,96913.84
2019-01-27T22:59:53.762Z,96917.23
2019-01-27T23:02:24.062Z,96920.71
2019-01-27T23:04:54.271Z,96936.79
2019-01-27T23:07:24.595Z,96937.53
2019-01-27T23:09:55.243Z,96936.22
2019-01-27T23:12:26.910Z,96934.81
2019-01-27T23:14:57.539Z,96935.89
2019-01-27T23:17:28.088Z,96942.47
2019-01-27T23:19:58.340Z,96951.44
2019-01-27T23:22:28.571Z,96955.40
2019-01-27T23:24:58.784Z,96952.63
2019-01-27T23:27:29.048Z,96955.75
2019-01-27T23:29:59.332Z,96961.03
2019-01-27T23:32:29.578Z,96957.42
2019-01-27T23:35:00.480Z,96961.61
2019-01-27T23:37:30.627Z,96957.89
2019-01-27T23:40:01.491Z,96962.19
2019-01-27T23:42:32.805Z,96959.77
2019-01-27T23:45:03.024Z,96973.12
2019-01-27T23:47:33.357Z,96976.94
2019-01-27T23:50:03.724Z,96963.98
2019-01-27T23:52:34.035Z,96969.26
2019-01-27T23:55:04.526Z,96976.45
2019-01-27T23:57:34.805Z,96966.20
